sensor_id;sensor_type;location;lat;lon;timestamp;P1;durP1;ratioP1;P2;durP2;ratioP2
81265;SDS011;70748;52.510;13.410;2023-07-29T00:00:42;19.25;;;10.07;;
81265;SDS011;70748;52.510;13.410;2023-07-29T00:03:08;17.27;;;10.68;;
81265;SDS011;70748;52.510;13.410;2023-07-29T00:05:37;15.80;;;11.02;;
81265;SDS011;70748;52.510;13.410;2023-07-29T00:08:03;15.75;;;10.90;;
81265;SDS011;70748;52.510;13.410;2023-07-29T00:10:33;13.45;;;9.32;;
81265;SDS011;70748;52.510;13.410;2023-07-29T00:13:01;14.93;;;10.20;;
81265;SDS011;70748;52.510;13.410;2023-07-29T00:15:27;11.82;;;8.32;;
81265;SDS011;70748;52.510;13.410;2023-07-29T00:17:53;13.43;;;9.90;;
81265;SDS011;70748;52.510;13.410;2023-07-29T00:20:19;12.13;;;9.18;;
81265;SDS011;70748;52.510;13.410;2023-07-29T00:22:45;13.23;;;9.15;;
81265;SDS011;70748;52.510;13.410;2023-07-29T00:25:10;23.60;;;11.10;;
81265;SDS011;70748;52.510;13.410;2023-07-29T00:27:36;17.42;;;10.88;;
81265;SDS011;70748;52.510;13.410;2023-07-29T00:30:05;17.15;;;11.88;;
81265;SDS011;70748;52.510;13.410;2023-07-29T00:32:31;21.17;;;11.18;;
81265;SDS011;70748;52.510;13.410;2023-07-29T00:34:58;14.15;;;11.10;;
81265;SDS011;70748;52.510;13.410;2023-07-29T00:37:25;23.30;;;12.77;;
81265;SDS011;70748;52.510;13.410;2023-07-29T00:39:52;14.60;;;10.05;;
81265;SDS011;70748;52.510;13.410;2023-07-29T00:42:21;14.15;;;10.18;;
81265;SDS011;70748;52.510;13.410;2023-07-29T00:44:47;15.55;;;11.02;;
81265;SDS011;70748;52.510;13.410;2023-07-29T00:47:12;17.23;;;10.52;;
81265;SDS011;70748;52.510;13.410;2023-07-29T00:49:40;22.58;;;12.55;;
81265;SDS011;70748;52.510;13.410;2023-07-29T00:52:06;20.60;;;12.02;;
81265;SDS011;70748;52.510;13.410;2023-07-29T00:54:32;18.52;;;10.88;;
81265;SDS011;70748;52.510;13.410;2023-07-29T00:56:58;18.02;;;11.63;;
81265;SDS011;70748;52.510;13.410;2023-07-29T00:59:23;16.20;;;10.32;;
81265;SDS011;70748;52.510;13.410;2023-07-29T01:01:50;24.48;;;13.32;;
81265;SDS011;70748;52.510;13.410;2023-07-29T01:04:15;27.98;;;13.05;;
81265;SDS011;70748;52.510;13.410;2023-07-29T01:06:44;19.40;;;12.18;;
81265;SDS011;70748;52.510;13.410;2023-07-29T01:09:41;27.77;;;13.60;;
81265;SDS011;70748;52.510;13.410;2023-07-29T01:12:20;28.08;;;13.32;;
81265;SDS011;70748;52.510;13.410;2023-07-29T01:14:57;17.42;;;11.57;;
81265;SDS011;70748;52.510;13.410;2023-07-29T01:18:04;23.90;;;13.52;;
81265;SDS011;70748;52.510;13.410;2023-07-29T01:20:29;18.60;;;11.90;;
81265;SDS011;70748;52.510;13.410;2023-07-29T01:22:58;12.50;;;10.05;;
81265;SDS011;70748;52.510;13.410;2023-07-29T01:25:24;22.27;;;12.77;;
81265;SDS011;70748;52.510;13.410;2023-07-29T01:27:51;17.13;;;12.80;;
81265;SDS011;70748;52.510;13.410;2023-07-29T01:30:18;25.10;;;13.27;;
81265;SDS011;70748;52.510;13.410;2023-07-29T01:32:50;39.97;;;14.07;;
81265;SDS011;70748;52.510;13.410;2023-07-29T01:35:33;22.85;;;12.70;;
81265;SDS011;70748;52.510;13.410;2023-07-29T01:38:29;21.30;;;11.98;;
81265;SDS011;70748;52.510;13.410;2023-07-29T01:41:03;23.58;;;12.18;;
81265;SDS011;70748;52.510;13.410;2023-07-29T01:43:31;23.80;;;13.90;;
81265;SDS011;70748;52.510;13.410;2023-07-29T01:45:57;14.52;;;11.00;;
81265;SDS011;70748;52.510;13.410;2023-07-29T01:48:24;14.85;;;11.13;;
81265;SDS011;70748;52.510;13.410;2023-07-29T01:50:49;15.15;;;10.70;;
81265;SDS011;70748;52.510;13.410;2023-07-29T01:53:15;18.67;;;10.52;;
81265;SDS011;70748;52.510;13.410;2023-07-29T01:55:42;23.58;;;10.85;;
81265;SDS011;70748;52.510;13.410;2023-07-29T01:58:09;22.48;;;13.27;;
81265;SDS011;70748;52.510;13.410;2023-07-29T02:00:35;21.33;;;10.85;;
81265;SDS011;70748;52.510;13.410;2023-07-29T02:03:01;19.23;;;12.02;;
81265;SDS011;70748;52.510;13.410;2023-07-29T02:05:26;25.67;;;12.57;;
81265;SDS011;70748;52.510;13.410;2023-07-29T02:07:52;17.80;;;11.18;;
81265;SDS011;70748;52.510;13.410;2023-07-29T02:10:18;15.15;;;10.82;;
81265;SDS011;70748;52.510;13.410;2023-07-29T02:12:43;27.58;;;12.63;;
81265;SDS011;70748;52.510;13.410;2023-07-29T02:15:09;23.05;;;13.82;;
81265;SDS011;70748;52.510;13.410;2023-07-29T02:17:35;28.52;;;14.00;;
81265;SDS011;70748;52.510;13.410;2023-07-29T02:20:01;16.83;;;11.43;;
81265;SDS011;70748;52.510;13.410;2023-07-29T02:22:28;18.70;;;12.20;;
81265;SDS011;70748;52.510;13.410;2023-07-29T02:24:54;31.08;;;14.85;;
81265;SDS011;70748;52.510;13.410;2023-07-29T02:27:19;24.70;;;14.98;;
81265;SDS011;70748;52.510;13.410;2023-07-29T02:29:45;23.50;;;13.63;;
81265;SDS011;70748;52.510;13.410;2023-07-29T02:32:11;18.40;;;11.35;;
81265;SDS011;70748;52.510;13.410;2023-07-29T02:34:36;19.23;;;12.18;;
81265;SDS011;70748;52.510;13.410;2023-07-29T02:37:02;30.73;;;13.98;;
81265;SDS011;70748;52.510;13.410;2023-07-29T02:39:28;19.23;;;12.25;;
81265;SDS011;70748;52.510;13.410;2023-07-29T02:41:54;20.25;;;11.90;;
81265;SDS011;70748;52.510;13.410;2023-07-29T02:44:21;26.10;;;14.57;;
81265;SDS011;70748;52.510;13.410;2023-07-29T02:46:46;32.65;;;15.85;;
81265;SDS011;70748;52.510;13.410;2023-07-29T02:49:12;27.67;;;15.30;;
81265;SDS011;70748;52.510;13.410;2023-07-29T02:51:38;21.80;;;12.57;;
81265;SDS011;70748;52.510;13.410;2023-07-29T02:54:03;16.80;;;12.30;;
81265;SDS011;70748;52.510;13.410;2023-07-29T02:56:29;25.00;;;13.85;;
81265;SDS011;70748;52.510;13.410;2023-07-29T02:58:55;27.35;;;16.52;;
81265;SDS011;70748;52.510;13.410;2023-07-29T03:01:22;21.60;;;12.77;;
81265;SDS011;70748;52.510;13.410;2023-07-29T03:03:50;26.67;;;15.45;;
81265;SDS011;70748;52.510;13.410;2023-07-29T03:06:16;23.17;;;13.32;;
81265;SDS011;70748;52.510;13.410;2023-07-29T03:08:42;23.30;;;12.77;;
81265;SDS011;70748;52.510;13.410;2023-07-29T03:11:08;22.15;;;13.10;;
81265;SDS011;70748;52.510;13.410;2023-07-29T03:13:37;20.58;;;12.88;;
81265;SDS011;70748;52.510;13.410;2023-07-29T03:16:06;34.28;;;14.00;;
81265;SDS011;70748;52.510;13.410;2023-07-29T03:18:36;27.10;;;14.35;;
81265;SDS011;70748;52.510;13.410;2023-07-29T03:21:02;24.30;;;13.95;;
81265;SDS011;70748;52.510;13.410;2023-07-29T03:23:28;19.33;;;12.07;;
81265;SDS011;70748;52.510;13.410;2023-07-29T03:25:55;20.17;;;12.55;;
81265;SDS011;70748;52.510;13.410;2023-07-29T03:28:23;19.02;;;13.15;;
81265;SDS011;70748;52.510;13.410;2023-07-29T03:30:56;20.83;;;12.43;;
81265;SDS011;70748;52.510;13.410;2023-07-29T03:33:22;24.25;;;13.85;;
81265;SDS011;70748;52.510;13.410;2023-07-29T03:35:48;24.38;;;14.35;;
81265;SDS011;70748;52.510;13.410;2023-07-29T03:38:14;18.15;;;12.98;;
81265;SDS011;70748;52.510;13.410;2023-07-29T03:40:40;18.50;;;12.18;;
81265;SDS011;70748;52.510;13.410;2023-07-29T03:43:06;18.05;;;12.00;;
81265;SDS011;70748;52.510;13.410;2023-07-29T03:45:33;20.58;;;13.45;;
81265;SDS011;70748;52.510;13.410;2023-07-29T03:47:59;22.17;;;14.10;;
81265;SDS011;70748;52.510;13.410;2023-07-29T03:50:24;23.00;;;13.10;;
81265;SDS011;70748;52.510;13.410;2023-07-29T03:52:50;25.50;;;14.02;;
81265;SDS011;70748;52.510;13.410;2023-07-29T03:55:16;24.98;;;13.85;;
81265;SDS011;70748;52.510;13.410;2023-07-29T03:57:42;33.13;;;15.60;;
81265;SDS011;70748;52.510;13.410;2023-07-29T04:00:07;24.95;;;13.25;;
81265;SDS011;70748;52.510;13.410;2023-07-29T04:02:36;28.35;;;14.93;;
81265;SDS011;70748;52.510;13.410;2023-07-29T04:05:03;23.52;;;13.82;;
81265;SDS011;70748;52.510;13.410;2023-07-29T04:07:30;22.95;;;13.07;;
81265;SDS011;70748;52.510;13.410;2023-07-29T04:09:56;20.42;;;12.85;;
81265;SDS011;70748;52.510;13.410;2023-07-29T04:12:22;23.15;;;12.40;;
81265;SDS011;70748;52.510;13.410;2023-07-29T04:14:48;21.77;;;13.02;;
81265;SDS011;70748;52.510;13.410;2023-07-29T04:17:14;17.25;;;11.25;;
81265;SDS011;70748;52.510;13.410;2023-07-29T04:19:40;16.80;;;12.68;;
81265;SDS011;70748;52.510;13.410;2023-07-29T04:22:05;16.05;;;11.23;;
81265;SDS011;70748;52.510;13.410;2023-07-29T04:24:31;18.83;;;11.73;;
81265;SDS011;70748;52.510;13.410;2023-07-29T04:26:57;16.20;;;11.32;;
81265;SDS011;70748;52.510;13.410;2023-07-29T04:29:25;13.68;;;10.90;;
81265;SDS011;70748;52.510;13.410;2023-07-29T04:31:51;17.02;;;10.43;;
81265;SDS011;70748;52.510;13.410;2023-07-29T04:34:18;13.20;;;10.73;;
81265;SDS011;70748;52.510;13.410;2023-07-29T04:36:44;11.40;;;10.18;;
81265;SDS011;70748;52.510;13.410;2023-07-29T04:39:10;11.23;;;9.35;;
81265;SDS011;70748;52.510;13.410;2023-07-29T04:41:36;25.60;;;9.68;;
81265;SDS011;70748;52.510;13.410;2023-07-29T04:44:02;12.98;;;9.13;;
81265;SDS011;70748;52.510;13.410;2023-07-29T04:46:27;12.25;;;9.35;;
81265;SDS011;70748;52.510;13.410;2023-07-29T04:48:53;14.40;;;9.48;;
81265;SDS011;70748;52.510;13.410;2023-07-29T04:51:19;9.85;;;8.80;;
81265;SDS011;70748;52.510;13.410;2023-07-29T04:53:44;9.77;;;8.18;;
81265;SDS011;70748;52.510;13.410;2023-07-29T04:56:10;13.50;;;9.20;;
81265;SDS011;70748;52.510;13.410;2023-07-29T04:58:36;9.85;;;8.32;;
81265;SDS011;70748;52.510;13.410;2023-07-29T05:01:02;10.20;;;8.25;;
81265;SDS011;70748;52.510;13.410;2023-07-29T05:03:29;11.23;;;8.02;;
81265;SDS011;70748;52.510;13.410;2023-07-29T05:05:54;9.38;;;8.20;;
81265;SDS011;70748;52.510;13.410;2023-07-29T05:08:22;9.85;;;7.78;;
81265;SDS011;70748;52.510;13.410;2023-07-29T05:10:51;10.82;;;7.82;;
81265;SDS011;70748;52.510;13.410;2023-07-29T05:13:17;8.32;;;7.47;;
81265;SDS011;70748;52.510;13.410;2023-07-29T05:15:44;7.88;;;7.05;;
81265;SDS011;70748;52.510;13.410;2023-07-29T05:18:10;10.07;;;7.55;;
81265;SDS011;70748;52.510;13.410;2023-07-29T05:20:36;9.40;;;8.00;;
81265;SDS011;70748;52.510;13.410;2023-07-29T05:23:01;8.45;;;7.40;;
81265;SDS011;70748;52.510;13.410;2023-07-29T05:25:28;12.77;;;7.28;;
81265;SDS011;70748;52.510;13.410;2023-07-29T05:27:54;8.77;;;7.63;;
81265;SDS011;70748;52.510;13.410;2023-07-29T05:30:19;10.73;;;7.45;;
81265;SDS011;70748;52.510;13.410;2023-07-29T05:32:45;7.82;;;6.43;;
81265;SDS011;70748;52.510;13.410;2023-07-29T05:35:11;8.30;;;6.60;;
81265;SDS011;70748;52.510;13.410;2023-07-29T05:37:40;7.03;;;6.32;;
81265;SDS011;70748;52.510;13.410;2023-07-29T05:40:06;7.95;;;6.78;;
81265;SDS011;70748;52.510;13.410;2023-07-29T05:42:33;8.43;;;6.50;;
81265;SDS011;70748;52.510;13.410;2023-07-29T05:44:58;7.35;;;6.55;;
81265;SDS011;70748;52.510;13.410;2023-07-29T05:47:24;7.80;;;6.35;;
81265;SDS011;70748;52.510;13.410;2023-07-29T05:49:50;9.80;;;7.07;;
81265;SDS011;70748;52.510;13.410;2023-07-29T05:52:16;7.10;;;6.40;;
81265;SDS011;70748;52.510;13.410;2023-07-29T05:54:41;8.57;;;6.30;;
81265;SDS011;70748;52.510;13.410;2023-07-29T05:57:08;9.70;;;6.30;;
81265;SDS011;70748;52.510;13.410;2023-07-29T05:59:35;7.28;;;6.35;;
81265;SDS011;70748;52.510;13.410;2023-07-29T06:02:00;8.30;;;7.20;;
81265;SDS011;70748;52.510;13.410;2023-07-29T06:04:26;7.97;;;6.90;;
81265;SDS011;70748;52.510;13.410;2023-07-29T06:06:52;6.68;;;5.97;;
81265;SDS011;70748;52.510;13.410;2023-07-29T06:09:18;6.93;;;6.22;;
81265;SDS011;70748;52.510;13.410;2023-07-29T06:11:43;8.70;;;6.18;;
81265;SDS011;70748;52.510;13.410;2023-07-29T06:14:09;6.50;;;5.85;;
81265;SDS011;70748;52.510;13.410;2023-07-29T06:16:34;6.57;;;5.47;;
81265;SDS011;70748;52.510;13.410;2023-07-29T06:19:00;6.95;;;5.32;;
81265;SDS011;70748;52.510;13.410;2023-07-29T06:21:26;5.40;;;4.60;;
81265;SDS011;70748;52.510;13.410;2023-07-29T06:23:52;5.90;;;4.47;;
81265;SDS011;70748;52.510;13.410;2023-07-29T06:26:18;5.80;;;4.30;;
81265;SDS011;70748;52.510;13.410;2023-07-29T06:28:43;7.13;;;4.72;;
81265;SDS011;70748;52.510;13.410;2023-07-29T06:31:09;5.32;;;4.10;;
81265;SDS011;70748;52.510;13.410;2023-07-29T06:33:35;7.05;;;4.15;;
81265;SDS011;70748;52.510;13.410;2023-07-29T06:36:01;4.97;;;3.67;;
81265;SDS011;70748;52.510;13.410;2023-07-29T06:38:26;3.85;;;3.45;;
81265;SDS011;70748;52.510;13.410;2023-07-29T06:40:52;8.98;;;3.63;;
81265;SDS011;70748;52.510;13.410;2023-07-29T06:43:18;5.60;;;3.90;;
81265;SDS011;70748;52.510;13.410;2023-07-29T06:45:43;4.22;;;3.50;;
81265;SDS011;70748;52.510;13.410;2023-07-29T06:48:09;5.82;;;3.75;;
81265;SDS011;70748;52.510;13.410;2023-07-29T06:50:34;6.80;;;3.33;;
81265;SDS011;70748;52.510;13.410;2023-07-29T06:53:00;4.70;;;3.38;;
81265;SDS011;70748;52.510;13.410;2023-07-29T06:55:26;4.47;;;3.45;;
81265;SDS011;70748;52.510;13.410;2023-07-29T06:57:51;4.95;;;3.25;;
81265;SDS011;70748;52.510;13.410;2023-07-29T07:00:17;4.85;;;3.60;;
81265;SDS011;70748;52.510;13.410;2023-07-29T07:02:43;6.03;;;3.70;;
81265;SDS011;70748;52.510;13.410;2023-07-29T07:05:08;5.20;;;3.50;;
81265;SDS011;70748;52.510;13.410;2023-07-29T07:07:34;3.63;;;3.33;;
81265;SDS011;70748;52.510;13.410;2023-07-29T07:10:00;3.95;;;3.55;;
81265;SDS011;70748;52.510;13.410;2023-07-29T07:12:26;8.43;;;3.67;;
81265;SDS011;70748;52.510;13.410;2023-07-29T07:14:51;6.15;;;3.85;;
81265;SDS011;70748;52.510;13.410;2023-07-29T07:17:17;4.90;;;3.55;;
81265;SDS011;70748;52.510;13.410;2023-07-29T07:19:43;4.47;;;3.35;;
81265;SDS011;70748;52.510;13.410;2023-07-29T07:22:09;5.80;;;3.55;;
81265;SDS011;70748;52.510;13.410;2023-07-29T07:24:34;4.97;;;3.63;;
81265;SDS011;70748;52.510;13.410;2023-07-29T07:27:00;4.10;;;3.70;;
81265;SDS011;70748;52.510;13.410;2023-07-29T07:29:26;5.38;;;3.70;;
81265;SDS011;70748;52.510;13.410;2023-07-29T07:31:52;4.88;;;3.40;;
81265;SDS011;70748;52.510;13.410;2023-07-29T07:34:19;5.70;;;3.67;;
81265;SDS011;70748;52.510;13.410;2023-07-29T07:36:45;3.70;;;3.33;;
81265;SDS011;70748;52.510;13.410;2023-07-29T07:39:11;5.25;;;3.58;;
81265;SDS011;70748;52.510;13.410;2023-07-29T07:41:37;6.47;;;3.50;;
81265;SDS011;70748;52.510;13.410;2023-07-29T07:44:02;4.28;;;3.25;;
81265;SDS011;70748;52.510;13.410;2023-07-29T07:46:28;3.65;;;3.20;;
81265;SDS011;70748;52.510;13.410;2023-07-29T07:48:54;6.25;;;3.95;;
81265;SDS011;70748;52.510;13.410;2023-07-29T07:51:20;6.10;;;3.30;;
81265;SDS011;70748;52.510;13.410;2023-07-29T07:53:48;6.05;;;3.60;;
81265;SDS011;70748;52.510;13.410;2023-07-29T07:56:17;4.63;;;3.42;;
81265;SDS011;70748;52.510;13.410;2023-07-29T07:58:43;6.20;;;3.90;;
81265;SDS011;70748;52.510;13.410;2023-07-29T08:01:09;6.18;;;3.63;;
81265;SDS011;70748;52.510;13.410;2023-07-29T08:03:35;5.97;;;4.07;;
81265;SDS011;70748;52.510;13.410;2023-07-29T08:06:01;9.23;;;4.00;;
81265;SDS011;70748;52.510;13.410;2023-07-29T08:14:59;3.60;;;3.30;;
81265;SDS011;70748;52.510;13.410;2023-07-29T08:24:23;9.00;;;5.45;;
81265;SDS011;70748;52.510;13.410;2023-07-29T08:27:00;5.05;;;3.40;;
81265;SDS011;70748;52.510;13.410;2023-07-29T08:32:57;4.57;;;3.20;;
81265;SDS011;70748;52.510;13.410;2023-07-29T08:35:22;5.53;;;3.33;;
81265;SDS011;70748;52.510;13.410;2023-07-29T08:37:48;5.50;;;3.58;;
81265;SDS011;70748;52.510;13.410;2023-07-29T08:40:14;5.35;;;3.30;;
81265;SDS011;70748;52.510;13.410;2023-07-29T08:42:40;6.40;;;4.68;;
81265;SDS011;70748;52.510;13.410;2023-07-29T08:45:07;6.75;;;4.07;;
81265;SDS011;70748;52.510;13.410;2023-07-29T08:47:34;5.32;;;3.30;;
81265;SDS011;70748;52.510;13.410;2023-07-29T08:49:59;7.32;;;3.60;;
81265;SDS011;70748;52.510;13.410;2023-07-29T08:52:27;4.03;;;3.10;;
81265;SDS011;70748;52.510;13.410;2023-07-29T08:54:54;7.03;;;3.70;;
81265;SDS011;70748;52.510;13.410;2023-07-29T08:57:21;5.63;;;3.75;;
81265;SDS011;70748;52.510;13.410;2023-07-29T08:59:48;8.15;;;4.47;;
81265;SDS011;70748;52.510;13.410;2023-07-29T09:02:14;3.90;;;3.15;;
81265;SDS011;70748;52.510;13.410;2023-07-29T09:04:39;5.68;;;3.63;;
81265;SDS011;70748;52.510;13.410;2023-07-29T09:07:05;6.13;;;3.40;;
81265;SDS011;70748;52.510;13.410;2023-07-29T09:09:32;5.70;;;3.70;;
81265;SDS011;70748;52.510;13.410;2023-07-29T09:11:58;3.22;;;2.78;;
81265;SDS011;70748;52.510;13.410;2023-07-29T09:14:24;4.90;;;3.25;;
81265;SDS011;70748;52.510;13.410;2023-07-29T09:16:50;8.43;;;3.40;;
81265;SDS011;70748;52.510;13.410;2023-07-29T09:19:16;15.65;;;7.80;;
81265;SDS011;70748;52.510;13.410;2023-07-29T09:21:42;5.93;;;3.40;;
81265;SDS011;70748;52.510;13.410;2023-07-29T09:24:10;4.38;;;3.17;;
81265;SDS011;70748;52.510;13.410;2023-07-29T09:26:40;7.57;;;4.35;;
81265;SDS011;70748;52.510;13.410;2023-07-29T09:29:14;8.25;;;3.47;;
81265;SDS011;70748;52.510;13.410;2023-07-29T09:31:40;5.60;;;4.10;;
81265;SDS011;70748;52.510;13.410;2023-07-29T09:34:06;5.93;;;2.92;;
81265;SDS011;70748;52.510;13.410;2023-07-29T09:36:34;3.90;;;2.95;;
81265;SDS011;70748;52.510;13.410;2023-07-29T09:39:00;9.98;;;3.25;;
81265;SDS011;70748;52.510;13.410;2023-07-29T09:41:27;7.88;;;3.60;;
81265;SDS011;70748;52.510;13.410;2023-07-29T09:44:00;3.72;;;2.60;;
81265;SDS011;70748;52.510;13.410;2023-07-29T09:46:37;3.25;;;2.80;;
81265;SDS011;70748;52.510;13.410;2023-07-29T09:49:03;3.20;;;2.45;;
81265;SDS011;70748;52.510;13.410;2023-07-29T09:51:29;2.90;;;2.70;;
81265;SDS011;70748;52.510;13.410;2023-07-29T09:53:55;7.20;;;2.40;;
81265;SDS011;70748;52.510;13.410;2023-07-29T09:56:25;3.47;;;2.95;;
81265;SDS011;70748;52.510;13.410;2023-07-29T09:58:51;2.85;;;2.42;;
81265;SDS011;70748;52.510;13.410;2023-07-29T10:01:18;2.92;;;2.72;;
81265;SDS011;70748;52.510;13.410;2023-07-29T10:03:46;4.35;;;3.30;;
81265;SDS011;70748;52.510;13.410;2023-07-29T10:06:14;6.60;;;2.50;;
81265;SDS011;70748;52.510;13.410;2023-07-29T10:08:40;3.53;;;2.50;;
81265;SDS011;70748;52.510;13.410;2023-07-29T10:11:08;5.25;;;2.75;;
81265;SDS011;70748;52.510;13.410;2023-07-29T10:13:35;2.40;;;2.20;;
81265;SDS011;70748;52.510;13.410;2023-07-29T10:16:02;4.00;;;2.70;;
81265;SDS011;70748;52.510;13.410;2023-07-29T10:18:29;3.15;;;2.80;;
81265;SDS011;70748;52.510;13.410;2023-07-29T10:20:56;3.20;;;2.60;;
81265;SDS011;70748;52.510;13.410;2023-07-29T10:23:24;4.10;;;2.60;;
81265;SDS011;70748;52.510;13.410;2023-07-29T10:28:24;3.90;;;2.40;;
81265;SDS011;70748;52.510;13.410;2023-07-29T10:30:52;5.35;;;2.70;;
81265;SDS011;70748;52.510;13.410;2023-07-29T10:33:18;3.45;;;2.33;;
81265;SDS011;70748;52.510;13.410;2023-07-29T10:35:44;5.03;;;2.90;;
81265;SDS011;70748;52.510;13.410;2023-07-29T10:38:11;3.42;;;2.50;;
81265;SDS011;70748;52.510;13.410;2023-07-29T10:40:46;3.17;;;2.85;;
81265;SDS011;70748;52.510;13.410;2023-07-29T10:43:19;2.58;;;2.38;;
81265;SDS011;70748;52.510;13.410;2023-07-29T10:45:49;4.30;;;2.55;;
81265;SDS011;70748;52.510;13.410;2023-07-29T10:54:14;4.88;;;2.20;;
81265;SDS011;70748;52.510;13.410;2023-07-29T10:56:41;3.30;;;2.40;;
81265;SDS011;70748;52.510;13.410;2023-07-29T11:01:40;2.45;;;2.20;;
81265;SDS011;70748;52.510;13.410;2023-07-29T11:09:42;2.83;;;2.30;;
81265;SDS011;70748;52.510;13.410;2023-07-29T11:15:04;6.68;;;2.50;;
81265;SDS011;70748;52.510;13.410;2023-07-29T11:17:39;7.60;;;2.47;;
81265;SDS011;70748;52.510;13.410;2023-07-29T11:20:06;7.22;;;2.55;;
81265;SDS011;70748;52.510;13.410;2023-07-29T11:22:35;16.48;;;2.30;;
81265;SDS011;70748;52.510;13.410;2023-07-29T11:25:02;7.65;;;2.10;;
81265;SDS011;70748;52.510;13.410;2023-07-29T11:27:28;7.50;;;1.70;;
81265;SDS011;70748;52.510;13.410;2023-07-29T11:29:57;6.65;;;1.67;;
81265;SDS011;70748;52.510;13.410;2023-07-29T11:32:27;3.97;;;1.60;;
81265;SDS011;70748;52.510;13.410;2023-07-29T11:34:53;4.32;;;1.70;;
81265;SDS011;70748;52.510;13.410;2023-07-29T11:37:18;5.82;;;2.20;;
81265;SDS011;70748;52.510;13.410;2023-07-29T11:39:45;3.42;;;1.83;;
81265;SDS011;70748;52.510;13.410;2023-07-29T11:42:12;5.13;;;1.85;;
81265;SDS011;70748;52.510;13.410;2023-07-29T11:44:38;3.08;;;1.77;;
81265;SDS011;70748;52.510;13.410;2023-07-29T11:47:07;5.75;;;2.22;;
81265;SDS011;70748;52.510;13.410;2023-07-29T11:49:34;2.53;;;1.73;;
81265;SDS011;70748;52.510;13.410;2023-07-29T11:52:00;3.50;;;1.90;;
81265;SDS011;70748;52.510;13.410;2023-07-29T11:54:27;2.88;;;2.20;;
81265;SDS011;70748;52.510;13.410;2023-07-29T11:56:53;5.78;;;2.40;;
81265;SDS011;70748;52.510;13.410;2023-07-29T11:59:19;4.32;;;1.92;;
81265;SDS011;70748;52.510;13.410;2023-07-29T12:01:45;7.72;;;2.20;;
81265;SDS011;70748;52.510;13.410;2023-07-29T12:04:11;2.53;;;2.28;;
81265;SDS011;70748;52.510;13.410;2023-07-29T12:06:37;4.18;;;2.15;;
81265;SDS011;70748;52.510;13.410;2023-07-29T12:09:04;3.22;;;2.30;;
81265;SDS011;70748;52.510;13.410;2023-07-29T12:11:30;4.05;;;2.10;;
81265;SDS011;70748;52.510;13.410;2023-07-29T12:13:56;4.25;;;2.67;;
81265;SDS011;70748;52.510;13.410;2023-07-29T12:16:21;3.63;;;2.50;;
81265;SDS011;70748;52.510;13.410;2023-07-29T12:18:49;9.10;;;2.20;;
81265;SDS011;70748;52.510;13.410;2023-07-29T12:21:15;3.83;;;2.05;;
81265;SDS011;70748;52.510;13.410;2023-07-29T12:26:46;3.75;;;1.77;;
81265;SDS011;70748;52.510;13.410;2023-07-29T12:29:16;6.30;;;2.08;;
81265;SDS011;70748;52.510;13.410;2023-07-29T12:31:45;4.78;;;1.80;;
81265;SDS011;70748;52.510;13.410;2023-07-29T12:34:17;2.35;;;1.80;;
81265;SDS011;70748;52.510;13.410;2023-07-29T12:36:47;3.05;;;1.98;;
81265;SDS011;70748;52.510;13.410;2023-07-29T12:41:47;4.65;;;2.42;;
81265;SDS011;70748;52.510;13.410;2023-07-29T12:44:14;5.88;;;2.25;;
81265;SDS011;70748;52.510;13.410;2023-07-29T12:46:39;3.58;;;2.42;;
81265;SDS011;70748;52.510;13.410;2023-07-29T12:49:05;3.95;;;2.20;;
81265;SDS011;70748;52.510;13.410;2023-07-29T12:51:31;5.88;;;4.03;;
81265;SDS011;70748;52.510;13.410;2023-07-29T12:53:57;3.58;;;2.30;;
81265;SDS011;70748;52.510;13.410;2023-07-29T12:56:23;7.72;;;1.90;;
81265;SDS011;70748;52.510;13.410;2023-07-29T12:58:49;4.18;;;2.13;;
81265;SDS011;70748;52.510;13.410;2023-07-29T13:01:15;3.15;;;2.22;;
81265;SDS011;70748;52.510;13.410;2023-07-29T13:03:47;4.25;;;2.10;;
81265;SDS011;70748;52.510;13.410;2023-07-29T13:06:13;3.05;;;2.38;;
81265;SDS011;70748;52.510;13.410;2023-07-29T13:08:38;2.97;;;2.28;;
81265;SDS011;70748;52.510;13.410;2023-07-29T13:11:04;3.33;;;2.53;;
81265;SDS011;70748;52.510;13.410;2023-07-29T13:13:30;3.85;;;2.65;;
81265;SDS011;70748;52.510;13.410;2023-07-29T13:15:57;3.05;;;2.50;;
81265;SDS011;70748;52.510;13.410;2023-07-29T13:18:23;4.13;;;2.45;;
81265;SDS011;70748;52.510;13.410;2023-07-29T13:20:48;5.03;;;2.53;;
81265;SDS011;70748;52.510;13.410;2023-07-29T13:23:15;7.57;;;2.88;;
81265;SDS011;70748;52.510;13.410;2023-07-29T13:25:41;3.78;;;2.60;;
81265;SDS011;70748;52.510;13.410;2023-07-29T13:28:07;4.80;;;2.47;;
81265;SDS011;70748;52.510;13.410;2023-07-29T13:30:34;4.10;;;2.25;;
81265;SDS011;70748;52.510;13.410;2023-07-29T13:33:10;13.77;;;7.85;;
81265;SDS011;70748;52.510;13.410;2023-07-29T13:35:36;9.25;;;3.15;;
81265;SDS011;70748;52.510;13.410;2023-07-29T13:38:01;3.50;;;2.50;;
81265;SDS011;70748;52.510;13.410;2023-07-29T13:40:27;5.72;;;3.33;;
81265;SDS011;70748;52.510;13.410;2023-07-29T13:42:53;4.85;;;2.78;;
81265;SDS011;70748;52.510;13.410;2023-07-29T13:45:20;12.90;;;3.40;;
81265;SDS011;70748;52.510;13.410;2023-07-29T13:47:46;5.25;;;2.50;;
81265;SDS011;70748;52.510;13.410;2023-07-29T13:50:11;3.75;;;2.45;;
81265;SDS011;70748;52.510;13.410;2023-07-29T13:52:37;2.53;;;2.17;;
81265;SDS011;70748;52.510;13.410;2023-07-29T13:55:03;4.82;;;3.58;;
81265;SDS011;70748;52.510;13.410;2023-07-29T13:57:29;8.48;;;5.95;;
81265;SDS011;70748;52.510;13.410;2023-07-29T13:59:55;4.13;;;2.00;;
81265;SDS011;70748;52.510;13.410;2023-07-29T14:02:21;7.13;;;3.72;;
81265;SDS011;70748;52.510;13.410;2023-07-29T14:04:47;7.47;;;3.75;;
81265;SDS011;70748;52.510;13.410;2023-07-29T14:07:12;8.13;;;2.40;;
81265;SDS011;70748;52.510;13.410;2023-07-29T14:09:38;3.67;;;1.88;;
81265;SDS011;70748;52.510;13.410;2023-07-29T14:12:04;5.38;;;1.73;;
81265;SDS011;70748;52.510;13.410;2023-07-29T14:14:30;12.75;;;8.75;;
81265;SDS011;70748;52.510;13.410;2023-07-29T14:16:56;4.63;;;2.35;;
81265;SDS011;70748;52.510;13.410;2023-07-29T14:19:22;1.95;;;1.75;;
81265;SDS011;70748;52.510;13.410;2023-07-29T14:21:48;2.45;;;1.60;;
81265;SDS011;70748;52.510;13.410;2023-07-29T14:24:14;2.58;;;2.20;;
81265;SDS011;70748;52.510;13.410;2023-07-29T14:26:40;7.20;;;1.63;;
81265;SDS011;70748;52.510;13.410;2023-07-29T14:29:06;2.05;;;1.85;;
81265;SDS011;70748;52.510;13.410;2023-07-29T14:31:32;2.20;;;1.80;;
81265;SDS011;70748;52.510;13.410;2023-07-29T14:33:58;3.30;;;1.83;;
81265;SDS011;70748;52.510;13.410;2023-07-29T14:36:24;3.10;;;2.10;;
81265;SDS011;70748;52.510;13.410;2023-07-29T14:38:50;2.53;;;1.85;;
81265;SDS011;70748;52.510;13.410;2023-07-29T14:41:16;2.05;;;1.77;;
81265;SDS011;70748;52.510;13.410;2023-07-29T14:43:42;7.13;;;1.92;;
81265;SDS011;70748;52.510;13.410;2023-07-29T14:46:07;2.00;;;1.75;;
81265;SDS011;70748;52.510;13.410;2023-07-29T14:48:33;3.03;;;1.73;;
81265;SDS011;70748;52.510;13.410;2023-07-29T14:50:59;2.38;;;1.80;;
81265;SDS011;70748;52.510;13.410;2023-07-29T14:53:24;4.20;;;1.92;;
81265;SDS011;70748;52.510;13.410;2023-07-29T14:55:50;2.47;;;1.83;;
81265;SDS011;70748;52.510;13.410;2023-07-29T14:58:16;2.30;;;1.52;;
81265;SDS011;70748;52.510;13.410;2023-07-29T15:00:42;17.50;;;2.10;;
81265;SDS011;70748;52.510;13.410;2023-07-29T15:03:07;4.22;;;1.98;;
81265;SDS011;70748;52.510;13.410;2023-07-29T15:05:33;1.92;;;1.70;;